createdAt,value
2024-02-05T00:01:19.428Z,0.82
2024-02-05T00:03:48.486Z,0.77
2024-02-05T00:06:17.645Z,0.90
2024-02-05T00:08:45.282Z,0.70
2024-02-05T00:11:12.888Z,0.93
2024-02-05T00:13:40.675Z,0.50
2024-02-05T00:16:09.018Z,0.60
2024-02-05T00:18:36.687Z,0.75
2024-02-05T00:21:05.994Z,0.70
2024-02-05T00:23:33.681Z,0.98
2024-02-05T00:26:01.341Z,0.82
2024-02-05T00:28:28.981Z,0.80
2024-02-05T00:30:56.612Z,0.73
2024-02-05T00:33:24.322Z,0.68
2024-02-05T00:35:52.682Z,0.75
2024-02-05T00:38:21.797Z,0.75
2024-02-05T00:40:49.510Z,0.85
2024-02-05T00:43:17.251Z,0.52
2024-02-05T00:45:45.007Z,0.70
2024-02-05T00:48:12.769Z,0.93
2024-02-05T00:50:42.668Z,0.55
2024-02-05T00:55:39.167Z,0.77
2024-02-05T00:58:06.824Z,0.70
2024-02-05T01:00:34.483Z,0.63
2024-02-05T01:03:02.563Z,1.00
2024-02-05T01:05:30.464Z,0.60
2024-02-05T01:07:58.483Z,0.60
2024-02-05T01:10:26.365Z,0.65
2024-02-05T01:12:55.394Z,0.73
2024-02-05T01:15:23.105Z,0.70
2024-02-05T01:17:50.887Z,0.70
2024-02-05T01:20:18.526Z,0.68
2024-02-05T01:22:46.229Z,0.70
2024-02-05T01:25:13.908Z,0.75
2024-02-05T01:27:41.680Z,0.57
2024-02-05T01:30:11.964Z,1.02
2024-02-05T01:32:40.025Z,0.70
2024-02-05T01:35:08.034Z,0.70
2024-02-05T01:37:35.686Z,1.27
2024-02-05T01:40:04.466Z,0.82
2024-02-05T01:42:32.094Z,0.70
2024-02-05T01:44:59.749Z,1.00
2024-02-05T01:47:28.739Z,0.90
2024-02-05T01:49:56.452Z,1.10
2024-02-05T01:52:24.121Z,0.82
2024-02-05T01:54:52.343Z,1.00
2024-02-05T01:57:20.066Z,0.63
2024-02-05T01:59:47.838Z,0.75
2024-02-05T02:02:15.541Z,0.75
2024-02-05T02:04:44.750Z,0.80
2024-02-05T02:07:13.102Z,0.70
2024-02-05T02:09:41.074Z,0.88
2024-02-05T02:12:09.856Z,0.65
2024-02-05T02:14:38.597Z,0.70
2024-02-05T02:17:06.529Z,0.63
2024-02-05T02:19:43.103Z,0.73
2024-02-05T02:22:21.616Z,0.73
2024-02-05T02:24:51.040Z,0.82
2024-02-05T02:27:18.654Z,0.52
2024-02-05T02:29:46.782Z,0.68
2024-02-05T02:32:21.301Z,0.52
2024-02-05T02:34:50.387Z,0.82
2024-02-05T02:37:19.009Z,0.70
2024-02-05T02:39:53.094Z,0.60
2024-02-05T02:42:21.241Z,0.77
2024-02-05T02:44:48.967Z,0.73
2024-02-05T02:47:16.645Z,0.70
2024-02-05T02:49:44.347Z,0.80
2024-02-05T02:52:12.041Z,0.80
2024-02-05T02:54:39.649Z,0.60
2024-02-05T02:57:08.598Z,0.60
2024-02-05T02:59:36.175Z,0.65
2024-02-05T03:02:03.862Z,0.63
2024-02-05T03:04:31.709Z,0.65
2024-02-05T03:06:59.414Z,0.82
2024-02-05T03:09:27.031Z,0.50
2024-02-05T03:11:54.660Z,0.52
2024-02-05T03:14:26.821Z,1.13
2024-02-05T03:16:54.959Z,0.63
2024-02-05T03:19:22.620Z,0.70
2024-02-05T03:21:50.287Z,0.88
2024-02-05T03:24:17.917Z,0.75
2024-02-05T03:26:45.492Z,0.60
2024-02-05T03:29:13.051Z,0.47
2024-02-05T03:31:44.119Z,0.52
2024-02-05T03:34:11.890Z,0.40
2024-02-05T03:36:40.030Z,0.60
2024-02-05T03:39:07.645Z,0.70
2024-02-05T03:41:35.233Z,0.77
2024-02-05T03:44:02.953Z,0.43
2024-02-05T03:46:30.592Z,0.50
2024-02-05T03:48:59.615Z,0.73
2024-02-05T03:51:27.420Z,0.50
2024-02-05T03:53:55.007Z,0.50
2024-02-05T03:56:22.545Z,0.60
2024-02-05T03:58:50.633Z,0.70
2024-02-05T04:01:18.390Z,0.43
2024-02-05T04:03:46.309Z,0.52
2024-02-05T04:06:15.540Z,0.60
2024-02-05T04:08:43.277Z,0.63
2024-02-05T04:11:10.957Z,0.52
2024-02-05T04:13:38.667Z,0.50
2024-02-05T04:16:08.319Z,0.32
2024-02-05T04:18:36.346Z,0.20
2024-02-05T04:21:05.022Z,0.47
2024-02-05T04:23:34.137Z,1.02
2024-02-05T04:26:04.757Z,0.40
2024-02-05T04:28:35.153Z,0.60
2024-02-05T04:31:02.907Z,0.40
2024-02-05T04:33:30.604Z,0.82
2024-02-05T04:35:58.226Z,0.40
2024-02-05T04:38:25.860Z,1.60
2024-02-05T04:40:54.769Z,0.43
2024-02-05T04:43:22.454Z,0.70
2024-02-05T04:45:50.143Z,0.60
2024-02-05T04:48:21.264Z,0.43
2024-02-05T04:50:48.974Z,0.63
2024-02-05T04:53:17.180Z,0.65
2024-02-05T04:55:45.014Z,0.45
2024-02-05T04:58:14.231Z,0.70
2024-02-05T05:00:42.541Z,0.80
2024-02-05T05:03:10.171Z,0.75
2024-02-05T05:05:37.820Z,0.60
2024-02-05T05:08:05.864Z,0.85
2024-02-05T05:10:33.537Z,0.70
2024-02-05T05:13:04.651Z,0.80
2024-02-05T05:15:37.446Z,0.75
2024-02-05T05:18:06.136Z,0.73
2024-02-05T05:20:33.761Z,0.52
2024-02-05T05:23:01.358Z,0.60
2024-02-05T05:25:28.976Z,0.75
2024-02-05T05:27:56.618Z,0.50
2024-02-05T05:30:24.310Z,0.75
2024-02-05T05:32:53.248Z,0.63
2024-02-05T05:35:20.852Z,0.65
2024-02-05T05:37:48.604Z,0.55
2024-02-05T05:40:16.443Z,0.65
2024-02-05T05:42:44.140Z,0.70
2024-02-05T05:45:11.777Z,0.63
2024-02-05T05:47:40.008Z,0.75
2024-02-05T05:50:11.777Z,0.60
2024-02-05T05:52:39.635Z,0.63
2024-02-05T05:55:08.665Z,0.57
2024-02-05T05:57:36.750Z,0.70
2024-02-05T06:00:06.553Z,0.80
2024-02-05T06:05:01.973Z,0.50
2024-02-05T06:07:30.092Z,0.70
2024-02-05T06:09:57.748Z,0.70
2024-02-05T06:12:25.312Z,0.93
2024-02-05T06:14:52.913Z,1.02
2024-02-05T06:17:20.473Z,0.80
2024-02-05T06:19:48.284Z,0.73
2024-02-05T06:22:15.960Z,0.88
2024-02-05T06:24:45.149Z,0.82
2024-02-05T06:27:12.848Z,1.17
2024-02-05T06:29:40.469Z,1.13
2024-02-05T06:32:08.359Z,0.75
2024-02-05T06:34:36.085Z,0.90
2024-02-05T06:37:03.824Z,0.63
2024-02-05T06:39:31.540Z,0.82
2024-02-05T06:42:00.660Z,0.90
2024-02-05T06:44:28.689Z,0.85
2024-02-05T06:46:56.469Z,1.08
2024-02-05T06:49:24.330Z,0.93
2024-02-05T06:51:52.814Z,1.02
2024-02-05T06:54:20.452Z,1.02
2024-02-05T06:56:50.469Z,0.82
2024-02-05T06:59:19.587Z,1.15
2024-02-05T07:01:47.593Z,0.90
2024-02-05T07:04:15.312Z,0.77
2024-02-05T07:06:43.181Z,0.82
2024-02-05T07:09:11.310Z,0.98
2024-02-05T07:11:39.314Z,1.25
2024-02-05T07:14:06.949Z,0.93
2024-02-05T07:16:35.895Z,0.70
2024-02-05T07:19:04.001Z,0.82
2024-02-05T07:21:32.040Z,0.77
2024-02-05T07:23:59.649Z,0.82
2024-02-05T07:26:27.225Z,0.82
2024-02-05T07:28:54.920Z,1.00
2024-02-05T07:31:22.694Z,0.73
2024-02-05T07:33:51.888Z,1.30
2024-02-05T07:36:19.621Z,1.10
2024-02-05T07:38:47.230Z,0.82
2024-02-05T07:41:14.882Z,1.10
2024-02-05T07:43:42.647Z,1.10
2024-02-05T07:46:10.489Z,1.60
2024-02-05T07:48:38.256Z,0.77
2024-02-05T07:51:07.466Z,0.85
2024-02-05T07:53:35.146Z,1.58
2024-02-05T07:56:06.647Z,1.10
2024-02-05T07:58:34.383Z,0.77
2024-02-05T08:01:02.512Z,0.77
2024-02-05T08:03:30.355Z,0.45
2024-02-05T08:05:58.029Z,0.88
2024-02-05T08:08:27.083Z,1.00
2024-02-05T08:10:54.722Z,0.70
2024-02-05T08:13:22.473Z,0.85
2024-02-05T08:15:50.176Z,1.25
2024-02-05T08:18:17.847Z,0.70
2024-02-05T08:20:45.484Z,0.80
2024-02-05T08:23:13.121Z,1.00
2024-02-05T08:25:42.277Z,1.00
2024-02-05T08:28:09.969Z,1.00
2024-02-05T08:30:37.678Z,1.20
2024-02-05T08:33:05.475Z,1.50
2024-02-05T08:35:33.163Z,0.80
2024-02-05T08:38:00.801Z,0.85
2024-02-05T08:40:28.447Z,1.00
2024-02-05T08:42:57.524Z,0.88
2024-02-05T08:45:25.303Z,0.93
2024-02-05T08:47:53.884Z,0.70
2024-02-05T08:50:23.575Z,0.98
2024-02-05T08:52:51.335Z,1.10
2024-02-05T08:55:19.030Z,0.80
2024-02-05T08:57:50.540Z,1.15
2024-02-05T09:00:20.706Z,0.80
2024-02-05T09:02:49.853Z,0.95
2024-02-05T09:05:17.656Z,1.13
2024-02-05T09:07:45.350Z,0.70
2024-02-05T09:10:13.193Z,0.80
2024-02-05T09:12:41.073Z,1.05
2024-02-05T09:15:09.131Z,0.95
2024-02-05T09:17:38.142Z,1.20
2024-02-05T09:20:07.181Z,1.40
2024-02-05T09:22:35.553Z,0.95
2024-02-05T09:25:03.542Z,1.10
2024-02-05T09:27:31.483Z,1.40
2024-02-05T09:29:59.276Z,1.00
2024-02-05T09:32:26.932Z,0.98
2024-02-05T09:34:56.000Z,1.13
2024-02-05T09:37:23.704Z,1.02
2024-02-05T09:39:51.835Z,1.00
2024-02-05T09:42:19.563Z,1.30
2024-02-05T09:44:48.066Z,1.05
2024-02-05T09:47:19.235Z,1.13
2024-02-05T09:49:48.434Z,1.13
2024-02-05T09:52:18.085Z,0.98
2024-02-05T09:54:46.260Z,1.40
2024-02-05T09:57:14.121Z,1.10
2024-02-05T09:59:42.130Z,1.25
2024-02-05T10:02:13.689Z,1.20
2024-02-05T10:04:44.607Z,1.25
2024-02-05T10:07:15.201Z,1.20
2024-02-05T10:09:44.849Z,1.05
2024-02-05T10:12:14.366Z,1.23
2024-02-05T10:14:43.237Z,1.13
2024-02-05T10:17:11.486Z,1.20
2024-02-05T10:19:39.443Z,1.27
2024-02-05T10:22:07.573Z,1.20
2024-02-05T10:24:36.268Z,1.50
2024-02-05T10:27:05.917Z,1.33
2024-02-05T10:29:33.643Z,1.63
2024-02-05T10:32:02.209Z,1.13
2024-02-05T10:34:30.044Z,1.48
2024-02-05T10:37:06.260Z,1.25
2024-02-05T10:39:33.997Z,1.23
2024-02-05T10:42:01.699Z,1.63
2024-02-05T10:44:38.063Z,0.95
2024-02-05T10:47:09.999Z,1.52
2024-02-05T10:49:37.730Z,1.40
2024-02-05T10:52:08.665Z,1.55
2024-02-05T10:54:40.132Z,1.30
2024-02-05T10:57:10.314Z,1.90
2024-02-05T10:59:40.412Z,1.05
2024-02-05T11:02:13.685Z,1.20
2024-02-05T11:04:41.602Z,1.08
2024-02-05T11:07:10.944Z,1.33
2024-02-05T11:09:39.076Z,1.35
2024-02-05T11:12:08.664Z,1.77
2024-02-05T11:14:37.256Z,1.75
2024-02-05T11:17:07.285Z,1.00
2024-02-05T11:19:35.321Z,1.20
2024-02-05T11:22:05.423Z,1.15
2024-02-05T11:24:33.911Z,1.70
2024-02-05T11:27:01.551Z,1.35
2024-02-05T11:29:33.207Z,1.38
2024-02-05T11:32:01.280Z,1.58
2024-02-05T11:34:35.932Z,1.05
2024-02-05T11:37:10.041Z,1.42
2024-02-05T11:39:38.740Z,1.17
2024-02-05T11:42:09.845Z,1.90
2024-02-05T11:44:37.628Z,1.95
2024-02-05T11:47:05.758Z,1.55
2024-02-05T11:49:35.839Z,1.33
2024-02-05T11:52:03.827Z,1.25
2024-02-05T11:54:31.781Z,1.30
2024-02-05T11:56:59.834Z,1.30
2024-02-05T11:59:27.531Z,1.05
2024-02-05T12:01:55.797Z,0.95
2024-02-05T12:04:23.609Z,1.42
2024-02-05T12:06:52.876Z,1.15
2024-02-05T12:09:20.541Z,1.13
2024-02-05T12:11:49.769Z,1.30
2024-02-05T12:14:17.512Z,1.27
2024-02-05T12:16:45.094Z,1.45
2024-02-05T12:19:21.872Z,1.50
2024-02-05T12:21:49.713Z,1.00
2024-02-05T12:24:19.226Z,1.38
2024-02-05T12:26:47.571Z,1.42
2024-02-05T12:29:24.304Z,1.60
2024-02-05T12:31:53.121Z,1.23
2024-02-05T12:34:20.898Z,1.23
2024-02-05T12:36:48.755Z,1.63
2024-02-05T12:39:16.809Z,1.73
2024-02-05T12:41:46.971Z,1.30
2024-02-05T12:44:22.923Z,1.00
2024-02-05T12:46:54.954Z,1.77
2024-02-05T12:49:23.959Z,1.60
2024-02-05T12:51:51.824Z,2.05
2024-02-05T12:54:19.552Z,1.30
2024-02-05T12:56:48.490Z,1.73
2024-02-05T12:59:17.218Z,1.15
2024-02-05T13:01:44.994Z,1.30
2024-02-05T13:04:17.088Z,1.60
2024-02-05T13:06:45.137Z,1.85
2024-02-05T13:09:13.605Z,2.08
2024-02-05T13:11:41.665Z,1.35
2024-02-05T13:14:10.628Z,1.60
2024-02-05T13:16:38.426Z,0.90
2024-02-05T13:19:06.261Z,0.95
2024-02-05T13:21:33.917Z,2.28
2024-02-05T13:24:01.523Z,1.10
2024-02-05T13:26:29.413Z,1.00
2024-02-05T13:28:57.019Z,1.30
2024-02-05T13:31:27.840Z,1.60
2024-02-05T13:33:56.728Z,1.67
2024-02-05T13:36:24.477Z,1.45
2024-02-05T13:38:53.219Z,1.35
2024-02-05T13:41:24.150Z,1.33
2024-02-05T13:43:51.781Z,1.35
2024-02-05T13:46:19.486Z,1.17
2024-02-05T13:48:48.553Z,1.52
2024-02-05T13:51:16.179Z,1.02
2024-02-05T13:53:43.843Z,1.13
2024-02-05T13:56:11.521Z,1.60
2024-02-05T13:58:39.135Z,1.05
2024-02-05T14:01:06.810Z,1.20
2024-02-05T14:03:34.650Z,2.97
2024-02-05T14:06:03.678Z,2.50
2024-02-05T14:08:32.288Z,1.05
2024-02-05T14:11:00.957Z,1.52
2024-02-05T14:13:28.751Z,1.23
2024-02-05T14:15:56.405Z,1.33
2024-02-05T14:18:24.093Z,1.40
2024-02-05T14:20:51.768Z,1.30
2024-02-05T14:23:21.483Z,0.93
2024-02-05T14:28:16.748Z,1.73
2024-02-05T14:30:44.491Z,1.13
2024-02-05T14:33:12.281Z,1.08
2024-02-05T14:35:39.905Z,1.15
2024-02-05T14:38:07.487Z,0.85
2024-02-05T14:40:37.435Z,0.95
2024-02-05T14:43:06.224Z,1.13
2024-02-05T14:45:33.980Z,1.05
2024-02-05T14:48:01.670Z,1.25
2024-02-05T14:50:29.481Z,1.10
2024-02-05T14:52:57.188Z,1.30
2024-02-05T14:55:24.953Z,1.38
2024-02-05T14:57:55.203Z,1.15
2024-02-05T15:00:24.013Z,1.25
2024-02-05T15:02:51.667Z,0.95
2024-02-05T15:05:19.781Z,1.42
2024-02-05T15:07:47.524Z,1.23
2024-02-05T15:10:15.154Z,1.33
2024-02-05T15:12:42.808Z,1.25
2024-02-05T15:15:12.589Z,1.50
2024-02-05T15:20:08.969Z,1.00
2024-02-05T15:22:36.694Z,1.17
2024-02-05T15:25:05.451Z,1.85
2024-02-05T15:27:33.183Z,1.52
2024-02-05T15:30:01.499Z,1.50
2024-02-05T15:32:30.501Z,1.33
2024-02-05T15:35:00.092Z,1.30
2024-02-05T15:37:28.013Z,1.10
2024-02-05T15:39:57.310Z,1.88
2024-02-05T15:42:30.894Z,2.17
2024-02-05T15:44:58.571Z,1.33
2024-02-05T15:47:26.433Z,1.27
2024-02-05T15:49:56.985Z,1.88
2024-02-05T15:52:24.713Z,1.20
2024-02-05T15:54:52.375Z,1.35
2024-02-05T15:57:20.093Z,1.20
2024-02-05T15:59:48.508Z,0.90
2024-02-05T16:02:16.210Z,1.83
2024-02-05T16:04:44.093Z,1.55
2024-02-05T16:07:13.268Z,1.55
2024-02-05T16:09:40.889Z,1.40
2024-02-05T16:12:09.157Z,1.98
2024-02-05T16:14:36.749Z,1.80
2024-02-05T16:17:04.959Z,2.10
2024-02-05T16:19:32.640Z,2.38
2024-02-05T16:22:01.432Z,2.38
2024-02-05T16:24:31.785Z,1.98
2024-02-05T16:26:59.358Z,2.00
2024-02-05T16:29:27.222Z,1.75
2024-02-05T16:31:54.833Z,2.33
2024-02-05T16:34:22.716Z,2.35
2024-02-05T16:36:51.548Z,2.30
2024-02-05T16:39:19.451Z,2.33
2024-02-05T16:41:48.503Z,2.67
2024-02-05T16:44:16.071Z,3.78
2024-02-05T16:46:43.872Z,4.45
2024-02-05T16:49:11.586Z,3.22
2024-02-05T16:51:39.283Z,3.85
2024-02-05T16:54:06.888Z,2.78
2024-02-05T16:56:34.453Z,2.90
2024-02-05T16:59:03.401Z,1.90
2024-02-05T17:01:31.073Z,2.00
2024-02-05T17:03:58.778Z,1.42
2024-02-05T17:06:26.474Z,1.67
2024-02-05T17:08:54.280Z,2.00
2024-02-05T17:11:22.045Z,1.90
2024-02-05T17:13:49.703Z,1.75
2024-02-05T17:16:18.667Z,1.95
2024-02-05T17:18:46.691Z,2.38
2024-02-05T17:21:16.719Z,2.38
2024-02-05T17:26:13.936Z,2.15
2024-02-05T17:28:42.949Z,1.92
2024-02-05T17:31:12.317Z,2.88
2024-02-05T17:33:41.417Z,3.00
2024-02-05T17:36:09.544Z,2.95
2024-02-05T17:38:37.218Z,2.63
2024-02-05T17:41:05.106Z,3.03
2024-02-05T17:43:32.840Z,3.28
2024-02-05T17:46:00.601Z,4.93
2024-02-05T17:48:33.206Z,4.32
2024-02-05T17:51:02.839Z,5.82
2024-02-05T17:53:30.448Z,5.20
2024-02-05T17:55:58.759Z,4.18
2024-02-05T17:58:26.907Z,3.97
2024-02-05T18:00:55.125Z,3.72
2024-02-05T18:03:23.473Z,3.15
2024-02-05T18:05:53.202Z,3.25
2024-02-05T18:08:22.310Z,4.07
2024-02-05T18:10:50.730Z,4.28
2024-02-05T18:13:19.196Z,3.22
2024-02-05T18:15:48.074Z,3.47
2024-02-05T18:18:18.915Z,2.97
2024-02-05T18:20:49.894Z,3.25
2024-02-05T18:23:19.130Z,2.53
2024-02-05T18:25:48.104Z,2.97
2024-02-05T18:28:15.740Z,3.03
2024-02-05T18:30:43.431Z,2.47
2024-02-05T18:33:11.030Z,2.53
2024-02-05T18:35:42.745Z,3.13
2024-02-05T18:38:10.536Z,3.35
2024-02-05T18:40:38.156Z,2.63
2024-02-05T18:43:07.274Z,2.15
2024-02-05T18:45:34.980Z,1.83
2024-02-05T18:48:02.687Z,2.03
2024-02-05T18:50:30.474Z,2.55
2024-02-05T18:52:58.198Z,2.35
2024-02-05T18:55:25.833Z,2.70
2024-02-05T18:57:53.564Z,3.38
2024-02-05T19:00:22.837Z,4.28
2024-02-05T19:02:50.438Z,2.90
2024-02-05T19:05:18.376Z,3.75
2024-02-05T19:07:46.088Z,3.75
2024-02-05T19:10:13.784Z,3.60
2024-02-05T19:12:42.868Z,3.30
2024-02-05T19:15:11.125Z,2.55
2024-02-05T19:17:40.084Z,2.72
2024-02-05T19:20:09.211Z,3.03
2024-02-05T19:22:37.002Z,2.38
2024-02-05T19:25:05.101Z,2.58
2024-02-05T19:27:32.914Z,2.95
2024-02-05T19:30:00.655Z,2.60
2024-02-05T19:32:28.371Z,2.50
2024-02-05T19:34:58.608Z,2.47
2024-02-05T19:37:26.483Z,2.70
2024-02-05T19:39:54.196Z,2.83
2024-02-05T19:42:21.852Z,3.08
2024-02-05T19:44:49.784Z,2.78
2024-02-05T19:47:17.393Z,3.50
2024-02-05T19:49:45.309Z,3.95
2024-02-05T19:52:14.361Z,4.93
2024-02-05T19:54:41.959Z,4.25
2024-02-05T19:57:09.601Z,3.40
2024-02-05T19:59:37.167Z,4.03
2024-02-05T20:02:05.275Z,3.88
2024-02-05T20:04:34.236Z,3.97
2024-02-05T20:07:07.373Z,3.35
2024-02-05T20:09:36.724Z,3.55
2024-02-05T20:12:09.439Z,3.53
2024-02-05T20:14:39.056Z,4.00
2024-02-05T20:17:07.566Z,4.05
2024-02-05T20:19:36.270Z,3.72
2024-02-05T20:22:04.344Z,4.75
2024-02-05T20:24:32.600Z,3.58
2024-02-05T20:27:01.685Z,4.63
2024-02-05T20:29:29.327Z,4.07
2024-02-05T20:31:56.972Z,4.50
2024-02-05T20:34:30.092Z,4.65
2024-02-05T20:36:58.952Z,4.00
2024-02-05T20:39:26.756Z,3.42
2024-02-05T20:41:54.383Z,3.95
2024-02-05T20:44:23.514Z,3.08
2024-02-05T20:46:51.949Z,2.65
2024-02-05T20:49:19.789Z,3.10
2024-02-05T20:51:48.100Z,2.85
2024-02-05T20:54:15.691Z,2.72
2024-02-05T20:56:43.287Z,2.53
2024-02-05T20:59:11.616Z,3.08
2024-02-05T21:01:40.913Z,3.00
2024-02-05T21:04:09.025Z,2.50
2024-02-05T21:06:36.678Z,2.40
2024-02-05T21:09:07.465Z,2.38
2024-02-05T21:11:35.047Z,2.42
2024-02-05T21:14:02.644Z,3.08
2024-02-05T21:16:30.445Z,2.33
2024-02-05T21:18:59.580Z,2.63
2024-02-05T21:21:27.208Z,3.03
2024-02-05T21:23:54.913Z,2.97
2024-02-05T21:26:22.490Z,3.30
2024-02-05T21:28:50.574Z,3.45
2024-02-05T21:31:18.197Z,2.97
2024-02-05T21:33:45.839Z,3.25
2024-02-05T21:36:14.887Z,2.58
2024-02-05T21:38:42.644Z,3.35
2024-02-05T21:41:10.945Z,2.90
2024-02-05T21:43:38.645Z,3.35
2024-02-05T21:46:06.382Z,3.10
2024-02-05T21:48:34.095Z,3.50
2024-02-05T21:51:01.736Z,3.75
2024-02-05T21:53:30.672Z,3.38
2024-02-05T21:55:58.266Z,2.90
2024-02-05T21:58:25.899Z,3.08
2024-02-05T22:00:53.614Z,3.58
2024-02-05T22:03:21.394Z,3.20
2024-02-05T22:05:48.993Z,3.35
2024-02-05T22:08:16.598Z,2.72
2024-02-05T22:10:45.607Z,2.85
2024-02-05T22:13:15.024Z,2.80
2024-02-05T22:15:42.850Z,2.70
2024-02-05T22:18:10.549Z,2.45
2024-02-05T22:20:38.224Z,2.75
2024-02-05T22:23:06.027Z,2.28
2024-02-05T22:25:33.779Z,2.95
2024-02-05T22:28:02.798Z,2.92
2024-02-05T22:30:33.112Z,2.75
2024-02-05T22:33:00.986Z,2.42
2024-02-05T22:35:28.825Z,2.53
2024-02-05T22:37:56.482Z,2.92
2024-02-05T22:40:24.118Z,2.58
2024-02-05T22:42:51.918Z,2.85
2024-02-05T22:45:21.689Z,2.58
2024-02-05T22:47:49.349Z,3.05
2024-02-05T22:50:17.190Z,2.78
2024-02-05T22:52:44.818Z,2.92
2024-02-05T22:55:12.467Z,2.63
2024-02-05T22:57:40.047Z,3.13
2024-02-05T23:00:27.715Z,3.45
2024-02-05T23:02:56.799Z,3.88
2024-02-05T23:05:25.008Z,3.53
2024-02-05T23:07:52.993Z,4.45
2024-02-05T23:10:21.564Z,3.95
2024-02-05T23:12:49.334Z,3.20
2024-02-05T23:15:17.122Z,3.03
2024-02-05T23:17:45.560Z,3.20
2024-02-05T23:20:15.848Z,3.63
2024-02-05T23:22:43.572Z,3.10
2024-02-05T23:25:11.443Z,2.58
2024-02-05T23:27:39.098Z,3.67
2024-02-05T23:30:08.094Z,5.57
2024-02-05T23:32:36.096Z,3.65
2024-02-05T23:35:05.507Z,3.15
2024-02-05T23:37:35.269Z,3.38
2024-02-05T23:40:04.654Z,3.58
2024-02-05T23:42:32.784Z,2.85
2024-02-05T23:45:00.438Z,3.28
2024-02-05T23:47:28.304Z,3.50
2024-02-05T23:49:56.634Z,3.38
2024-02-05T23:52:24.498Z,3.47
2024-02-05T23:54:53.489Z,4.10
2024-02-05T23:57:22.403Z,4.70
2024-02-05T23:59:50.114Z,2.78
